Turnersburg, North Carolina
Current Conditions -  °F | °C
As of 6:35 PM on Saturday 25 Oct 2014 (Local Time) from KSVH Reporting Station
Clear Clear  
Wind Chill: 66°   Ceiling: Unl
Heat Index: 66°   Visibility: 10mi
Dew Point: 42°   Wind: 5mph
Humidity: 42%   Direction: 200°SSW
Pressure: 29.93"   Gusts: NA
Location:  35.91°N, 80.81°W
Report Text: KSVH 252235Z AUTO 20004KT 10SM CLR 19/06 A2993 RMK AO2 T01870055
Loading
Personal Weather Stations






























Interactive Weather Map
Tropical Storm Tracking
New forecast layout! Learn more

10-Day Weather Forecast

Advertisements
Track Severe Weather on mobile